sensor_id;sensor_type;location;lat;lon;timestamp;temperature;humidity
7399;DHT22;3740;50.700;7.184;2022-12-05T00:01:29;5.60;99.90
7399;DHT22;3740;50.700;7.184;2022-12-05T00:03:57;5.60;99.90
7399;DHT22;3740;50.700;7.184;2022-12-05T00:06:24;5.40;99.90
7399;DHT22;3740;50.700;7.184;2022-12-05T00:08:51;5.40;99.90
7399;DHT22;3740;50.700;7.184;2022-12-05T00:11:22;5.20;99.90
7399;DHT22;3740;50.700;7.184;2022-12-05T00:13:49;5.10;99.90
7399;DHT22;3740;50.700;7.184;2022-12-05T00:16:19;5.00;99.90
7399;DHT22;3740;50.700;7.184;2022-12-05T00:18:45;5.00;99.90
7399;DHT22;3740;50.700;7.184;2022-12-05T00:21:17;5.00;99.90
7399;DHT22;3740;50.700;7.184;2022-12-05T00:23:43;5.00;99.90
7399;DHT22;3740;50.700;7.184;2022-12-05T00:26:09;5.00;99.90
7399;DHT22;3740;50.700;7.184;2022-12-05T00:28:35;4.90;99.90
7399;DHT22;3740;50.700;7.184;2022-12-05T00:31:02;4.90;99.90
7399;DHT22;3740;50.700;7.184;2022-12-05T00:33:28;5.10;99.90
7399;DHT22;3740;50.700;7.184;2022-12-05T00:35:54;5.30;99.90
7399;DHT22;3740;50.700;7.184;2022-12-05T00:38:19;5.40;99.90
7399;DHT22;3740;50.700;7.184;2022-12-05T00:40:45;5.50;99.90
7399;DHT22;3740;50.700;7.184;2022-12-05T00:43:10;5.40;99.90
7399;DHT22;3740;50.700;7.184;2022-12-05T00:45:36;5.20;99.90
7399;DHT22;3740;50.700;7.184;2022-12-05T00:48:01;5.10;99.90
7399;DHT22;3740;50.700;7.184;2022-12-05T00:50:27;5.00;99.90
7399;DHT22;3740;50.700;7.184;2022-12-05T00:52:52;4.90;99.90
7399;DHT22;3740;50.700;7.184;2022-12-05T00:55:18;4.80;99.90
7399;DHT22;3740;50.700;7.184;2022-12-05T00:57:43;4.80;99.90
7399;DHT22;3740;50.700;7.184;2022-12-05T01:00:09;4.70;99.90
7399;DHT22;3740;50.700;7.184;2022-12-05T01:02:35;4.70;99.90
7399;DHT22;3740;50.700;7.184;2022-12-05T01:05:00;4.60;99.90
7399;DHT22;3740;50.700;7.184;2022-12-05T01:07:26;4.40;99.90
7399;DHT22;3740;50.700;7.184;2022-12-05T01:09:51;4.30;99.90
7399;DHT22;3740;50.700;7.184;2022-12-05T01:12:17;4.30;99.90
7399;DHT22;3740;50.700;7.184;2022-12-05T01:14:42;4.30;99.90
7399;DHT22;3740;50.700;7.184;2022-12-05T01:17:09;4.30;99.90
7399;DHT22;3740;50.700;7.184;2022-12-05T01:19:34;4.40;99.90
7399;DHT22;3740;50.700;7.184;2022-12-05T01:22:00;4.30;99.90
7399;DHT22;3740;50.700;7.184;2022-12-05T01:24:26;4.30;99.90
7399;DHT22;3740;50.700;7.184;2022-12-05T01:26:52;4.30;99.90
7399;DHT22;3740;50.700;7.184;2022-12-05T01:29:20;4.30;99.90
7399;DHT22;3740;50.700;7.184;2022-12-05T01:31:46;4.30;99.90
7399;DHT22;3740;50.700;7.184;2022-12-05T01:34:14;4.30;99.90
7399;DHT22;3740;50.700;7.184;2022-12-05T01:36:39;4.30;99.90
7399;DHT22;3740;50.700;7.184;2022-12-05T01:39:07;4.20;99.90
7399;DHT22;3740;50.700;7.184;2022-12-05T01:41:36;4.20;99.90
7399;DHT22;3740;50.700;7.184;2022-12-05T01:46:37;4.20;99.90
7399;DHT22;3740;50.700;7.184;2022-12-05T01:49:13;4.20;99.90
7399;DHT22;3740;50.700;7.184;2022-12-05T01:51:42;4.20;99.90
7399;DHT22;3740;50.700;7.184;2022-12-05T01:54:08;4.10;99.90
7399;DHT22;3740;50.700;7.184;2022-12-05T01:56:35;4.10;99.90
7399;DHT22;3740;50.700;7.184;2022-12-05T01:59:02;4.00;99.90
7399;DHT22;3740;50.700;7.184;2022-12-05T02:01:28;4.10;99.90
7399;DHT22;3740;50.700;7.184;2022-12-05T02:03:56;4.20;99.90
7399;DHT22;3740;50.700;7.184;2022-12-05T02:06:24;4.30;99.90
7399;DHT22;3740;50.700;7.184;2022-12-05T02:08:51;4.40;99.90
7399;DHT22;3740;50.700;7.184;2022-12-05T02:11:18;4.50;99.90
7399;DHT22;3740;50.700;7.184;2022-12-05T02:16:54;4.20;99.90
7399;DHT22;3740;50.700;7.184;2022-12-05T02:19:30;4.10;99.90
7399;DHT22;3740;50.700;7.184;2022-12-05T02:30:20;4.00;99.90
7399;DHT22;3740;50.700;7.184;2022-12-05T02:33:09;4.00;99.90
7399;DHT22;3740;50.700;7.184;2022-12-05T02:35:39;3.90;99.90
7399;DHT22;3740;50.700;7.184;2022-12-05T02:41:31;3.90;99.90
7399;DHT22;3740;50.700;7.184;2022-12-05T02:44:13;3.80;99.90
7399;DHT22;3740;50.700;7.184;2022-12-05T02:46:41;3.70;99.90
7399;DHT22;3740;50.700;7.184;2022-12-05T02:49:10;3.70;99.90
7399;DHT22;3740;50.700;7.184;2022-12-05T02:51:43;3.60;99.90
7399;DHT22;3740;50.700;7.184;2022-12-05T02:54:17;3.40;99.90
7399;DHT22;3740;50.700;7.184;2022-12-05T02:56:44;3.20;99.90
7399;DHT22;3740;50.700;7.184;2022-12-05T02:59:10;3.20;99.90
7399;DHT22;3740;50.700;7.184;2022-12-05T03:01:36;3.20;99.90
7399;DHT22;3740;50.700;7.184;2022-12-05T03:04:03;3.20;99.90
7399;DHT22;3740;50.700;7.184;2022-12-05T03:06:34;3.20;99.90
7399;DHT22;3740;50.700;7.184;2022-12-05T03:09:26;3.20;99.90
7399;DHT22;3740;50.700;7.184;2022-12-05T03:12:00;3.10;99.90
7399;DHT22;3740;50.700;7.184;2022-12-05T03:14:36;3.20;99.90
7399;DHT22;3740;50.700;7.184;2022-12-05T03:17:07;3.30;99.90
7399;DHT22;3740;50.700;7.184;2022-12-05T03:22:45;3.20;99.90
7399;DHT22;3740;50.700;7.184;2022-12-05T03:25:13;3.10;99.90
7399;DHT22;3740;50.700;7.184;2022-12-05T03:27:48;3.10;99.90
7399;DHT22;3740;50.700;7.184;2022-12-05T03:30:20;3.20;99.90
7399;DHT22;3740;50.700;7.184;2022-12-05T03:32:52;3.20;99.90
7399;DHT22;3740;50.700;7.184;2022-12-05T03:35:30;3.20;99.90
7399;DHT22;3740;50.700;7.184;2022-12-05T03:39:02;3.20;99.90
7399;DHT22;3740;50.700;7.184;2022-12-05T03:41:21;3.20;99.90
7399;DHT22;3740;50.700;7.184;2022-12-05T03:44:11;3.30;99.90
7399;DHT22;3740;50.700;7.184;2022-12-05T03:46:47;3.50;99.90
7399;DHT22;3740;50.700;7.184;2022-12-05T03:54:45;3.60;99.90
7399;DHT22;3740;50.700;7.184;2022-12-05T03:57:37;3.70;99.90
7399;DHT22;3740;50.700;7.184;2022-12-05T04:00:05;3.70;99.90
7399;DHT22;3740;50.700;7.184;2022-12-05T04:02:38;3.80;99.90
7399;DHT22;3740;50.700;7.184;2022-12-05T04:05:16;3.70;99.90
7399;DHT22;3740;50.700;7.184;2022-12-05T04:07:45;3.70;99.90
7399;DHT22;3740;50.700;7.184;2022-12-05T04:10:17;3.80;99.90
7399;DHT22;3740;50.700;7.184;2022-12-05T04:12:45;3.80;99.90
7399;DHT22;3740;50.700;7.184;2022-12-05T04:15:28;3.80;99.90
7399;DHT22;3740;50.700;7.184;2022-12-05T04:18:19;4.10;99.90
7399;DHT22;3740;50.700;7.184;2022-12-05T04:20:47;4.30;99.90
7399;DHT22;3740;50.700;7.184;2022-12-05T04:23:32;4.20;99.90
7399;DHT22;3740;50.700;7.184;2022-12-05T04:26:16;3.90;99.90
7399;DHT22;3740;50.700;7.184;2022-12-05T04:28:51;3.70;99.90
7399;DHT22;3740;50.700;7.184;2022-12-05T04:31:29;3.60;99.90
7399;DHT22;3740;50.700;7.184;2022-12-05T04:34:01;3.60;99.90
7399;DHT22;3740;50.700;7.184;2022-12-05T04:36:39;3.60;99.90
7399;DHT22;3740;50.700;7.184;2022-12-05T04:39:14;3.70;99.90
7399;DHT22;3740;50.700;7.184;2022-12-05T04:41:52;3.80;99.90
7399;DHT22;3740;50.700;7.184;2022-12-05T04:44:22;3.80;99.90
7399;DHT22;3740;50.700;7.184;2022-12-05T04:46:50;3.90;99.90
7399;DHT22;3740;50.700;7.184;2022-12-05T04:49:20;3.90;99.90
7399;DHT22;3740;50.700;7.184;2022-12-05T04:51:49;3.90;99.90
7399;DHT22;3740;50.700;7.184;2022-12-05T04:54:28;3.90;99.90
7399;DHT22;3740;50.700;7.184;2022-12-05T04:57:04;3.90;99.90
7399;DHT22;3740;50.700;7.184;2022-12-05T04:59:32;3.90;99.90
7399;DHT22;3740;50.700;7.184;2022-12-05T05:02:04;3.90;99.90
7399;DHT22;3740;50.700;7.184;2022-12-05T05:04:35;3.90;99.90
7399;DHT22;3740;50.700;7.184;2022-12-05T05:07:07;3.90;99.90
7399;DHT22;3740;50.700;7.184;2022-12-05T05:09:33;3.90;99.90
7399;DHT22;3740;50.700;7.184;2022-12-05T05:11:59;3.90;99.90
7399;DHT22;3740;50.700;7.184;2022-12-05T05:14:25;3.90;99.90
7399;DHT22;3740;50.700;7.184;2022-12-05T05:16:50;3.90;99.90
7399;DHT22;3740;50.700;7.184;2022-12-05T05:19:16;3.90;99.90
7399;DHT22;3740;50.700;7.184;2022-12-05T05:21:42;3.90;99.90
7399;DHT22;3740;50.700;7.184;2022-12-05T05:24:09;3.90;99.90
7399;DHT22;3740;50.700;7.184;2022-12-05T05:26:37;3.90;99.90
7399;DHT22;3740;50.700;7.184;2022-12-05T05:29:04;3.90;99.90
7399;DHT22;3740;50.700;7.184;2022-12-05T05:31:30;4.00;99.90
7399;DHT22;3740;50.700;7.184;2022-12-05T05:33:56;4.00;99.90
7399;DHT22;3740;50.700;7.184;2022-12-05T05:36:23;4.00;99.90
7399;DHT22;3740;50.700;7.184;2022-12-05T05:38:51;4.10;99.90
7399;DHT22;3740;50.700;7.184;2022-12-05T05:41:22;4.10;99.90
7399;DHT22;3740;50.700;7.184;2022-12-05T05:43:49;4.10;99.90
7399;DHT22;3740;50.700;7.184;2022-12-05T05:46:16;4.20;99.90
7399;DHT22;3740;50.700;7.184;2022-12-05T05:48:42;4.30;99.90
7399;DHT22;3740;50.700;7.184;2022-12-05T05:51:10;4.30;99.90
7399;DHT22;3740;50.700;7.184;2022-12-05T05:53:36;4.30;99.90
7399;DHT22;3740;50.700;7.184;2022-12-05T05:56:03;4.30;99.90
7399;DHT22;3740;50.700;7.184;2022-12-05T05:58:29;4.40;99.90
7399;DHT22;3740;50.700;7.184;2022-12-05T06:01:04;4.40;99.90
7399;DHT22;3740;50.700;7.184;2022-12-05T06:03:30;4.40;99.90
7399;DHT22;3740;50.700;7.184;2022-12-05T06:06:00;4.60;99.90
7399;DHT22;3740;50.700;7.184;2022-12-05T06:08:29;4.80;99.90
7399;DHT22;3740;50.700;7.184;2022-12-05T06:10:55;4.80;99.90
7399;DHT22;3740;50.700;7.184;2022-12-05T06:13:20;4.80;99.90
7399;DHT22;3740;50.700;7.184;2022-12-05T06:15:46;4.70;99.90
7399;DHT22;3740;50.700;7.184;2022-12-05T06:18:11;4.60;99.90
7399;DHT22;3740;50.700;7.184;2022-12-05T06:20:37;4.40;99.90
7399;DHT22;3740;50.700;7.184;2022-12-05T06:23:02;4.30;99.90
7399;DHT22;3740;50.700;7.184;2022-12-05T06:25:28;4.30;99.90
7399;DHT22;3740;50.700;7.184;2022-12-05T06:27:53;4.30;99.90
7399;DHT22;3740;50.700;7.184;2022-12-05T06:30:19;4.20;99.90
7399;DHT22;3740;50.700;7.184;2022-12-05T06:32:44;4.20;99.90
7399;DHT22;3740;50.700;7.184;2022-12-05T06:35:10;4.20;99.90
7399;DHT22;3740;50.700;7.184;2022-12-05T06:37:41;4.10;99.90
7399;DHT22;3740;50.700;7.184;2022-12-05T06:40:07;4.10;99.90
7399;DHT22;3740;50.700;7.184;2022-12-05T06:42:33;4.10;99.90
7399;DHT22;3740;50.700;7.184;2022-12-05T06:44:59;4.10;99.90
7399;DHT22;3740;50.700;7.184;2022-12-05T06:47:24;4.00;99.90
7399;DHT22;3740;50.700;7.184;2022-12-05T06:49:50;4.00;99.90
7399;DHT22;3740;50.700;7.184;2022-12-05T06:52:15;4.00;99.90
7399;DHT22;3740;50.700;7.184;2022-12-05T06:54:41;4.00;99.90
7399;DHT22;3740;50.700;7.184;2022-12-05T06:57:06;4.00;99.90
7399;DHT22;3740;50.700;7.184;2022-12-05T06:59:32;4.00;99.90
7399;DHT22;3740;50.700;7.184;2022-12-05T07:01:57;4.10;99.90
7399;DHT22;3740;50.700;7.184;2022-12-05T07:04:23;4.10;99.90
7399;DHT22;3740;50.700;7.184;2022-12-05T07:06:49;4.00;99.90
7399;DHT22;3740;50.700;7.184;2022-12-05T07:09:16;4.10;99.90
7399;DHT22;3740;50.700;7.184;2022-12-05T07:11:46;4.20;99.90
7399;DHT22;3740;50.700;7.184;2022-12-05T07:14:11;4.20;99.90
7399;DHT22;3740;50.700;7.184;2022-12-05T07:16:37;4.40;99.90
7399;DHT22;3740;50.700;7.184;2022-12-05T07:19:02;4.40;99.90
7399;DHT22;3740;50.700;7.184;2022-12-05T07:21:28;4.60;99.90
7399;DHT22;3740;50.700;7.184;2022-12-05T07:23:54;4.60;99.90
7399;DHT22;3740;50.700;7.184;2022-12-05T07:26:22;4.40;99.90
7399;DHT22;3740;50.700;7.184;2022-12-05T07:28:49;4.30;99.90
7399;DHT22;3740;50.700;7.184;2022-12-05T07:31:17;4.60;99.90
7399;DHT22;3740;50.700;7.184;2022-12-05T07:33:43;4.70;99.90
7399;DHT22;3740;50.700;7.184;2022-12-05T07:36:14;4.60;99.90
7399;DHT22;3740;50.700;7.184;2022-12-05T07:38:41;4.60;99.90
7399;DHT22;3740;50.700;7.184;2022-12-05T07:41:20;4.50;99.90
7399;DHT22;3740;50.700;7.184;2022-12-05T07:43:47;4.40;99.90
7399;DHT22;3740;50.700;7.184;2022-12-05T07:46:12;4.30;99.90
7399;DHT22;3740;50.700;7.184;2022-12-05T07:48:39;4.20;99.90
7399;DHT22;3740;50.700;7.184;2022-12-05T07:51:05;4.20;99.90
7399;DHT22;3740;50.700;7.184;2022-12-05T07:53:31;4.20;99.90
7399;DHT22;3740;50.700;7.184;2022-12-05T07:55:58;4.20;99.90
7399;DHT22;3740;50.700;7.184;2022-12-05T07:58:25;4.30;99.90
7399;DHT22;3740;50.700;7.184;2022-12-05T08:00:50;4.30;99.90
7399;DHT22;3740;50.700;7.184;2022-12-05T08:03:16;4.30;99.90
7399;DHT22;3740;50.700;7.184;2022-12-05T08:05:42;4.30;99.90
7399;DHT22;3740;50.700;7.184;2022-12-05T08:08:07;4.30;99.90
7399;DHT22;3740;50.700;7.184;2022-12-05T08:10:33;4.30;99.90
7399;DHT22;3740;50.700;7.184;2022-12-05T08:12:59;4.40;99.90
7399;DHT22;3740;50.700;7.184;2022-12-05T08:15:25;4.40;99.90
7399;DHT22;3740;50.700;7.184;2022-12-05T08:17:50;4.40;99.90
7399;DHT22;3740;50.700;7.184;2022-12-05T08:20:16;4.40;99.90
7399;DHT22;3740;50.700;7.184;2022-12-05T08:22:41;4.50;99.90
7399;DHT22;3740;50.700;7.184;2022-12-05T08:25:07;4.50;99.90
7399;DHT22;3740;50.700;7.184;2022-12-05T08:27:33;4.40;99.90
7399;DHT22;3740;50.700;7.184;2022-12-05T08:29:58;4.40;99.90
7399;DHT22;3740;50.700;7.184;2022-12-05T08:32:24;4.30;99.90
7399;DHT22;3740;50.700;7.184;2022-12-05T08:34:49;4.10;99.90
7399;DHT22;3740;50.700;7.184;2022-12-05T08:37:15;4.20;99.90
7399;DHT22;3740;50.700;7.184;2022-12-05T08:39:41;4.20;99.90
7399;DHT22;3740;50.700;7.184;2022-12-05T08:42:06;4.30;99.90
7399;DHT22;3740;50.700;7.184;2022-12-05T08:44:32;4.30;99.90
7399;DHT22;3740;50.700;7.184;2022-12-05T08:46:57;4.30;99.90
7399;DHT22;3740;50.700;7.184;2022-12-05T08:49:23;4.40;99.90
7399;DHT22;3740;50.700;7.184;2022-12-05T08:51:48;4.50;99.90
7399;DHT22;3740;50.700;7.184;2022-12-05T08:54:14;4.50;99.90
7399;DHT22;3740;50.700;7.184;2022-12-05T08:56:40;4.50;99.90
7399;DHT22;3740;50.700;7.184;2022-12-05T08:59:06;4.90;99.90
7399;DHT22;3740;50.700;7.184;2022-12-05T09:01:32;5.20;99.90
7399;DHT22;3740;50.700;7.184;2022-12-05T09:04:01;5.20;99.90
7399;DHT22;3740;50.700;7.184;2022-12-05T09:06:28;5.10;99.90
7399;DHT22;3740;50.700;7.184;2022-12-05T09:08:57;5.00;99.90
7399;DHT22;3740;50.700;7.184;2022-12-05T09:11:26;4.90;99.90
7399;DHT22;3740;50.700;7.184;2022-12-05T09:13:53;4.80;99.90
7399;DHT22;3740;50.700;7.184;2022-12-05T09:16:25;4.80;99.90
7399;DHT22;3740;50.700;7.184;2022-12-05T09:18:53;4.80;99.90
7399;DHT22;3740;50.700;7.184;2022-12-05T09:21:21;4.70;99.90
7399;DHT22;3740;50.700;7.184;2022-12-05T09:23:48;4.70;99.90
7399;DHT22;3740;50.700;7.184;2022-12-05T09:26:17;4.70;99.90
7399;DHT22;3740;50.700;7.184;2022-12-05T09:28:43;4.60;99.90
7399;DHT22;3740;50.700;7.184;2022-12-05T09:31:11;4.50;99.90
7399;DHT22;3740;50.700;7.184;2022-12-05T09:33:38;4.60;99.90
7399;DHT22;3740;50.700;7.184;2022-12-05T09:36:24;4.50;99.90
7399;DHT22;3740;50.700;7.184;2022-12-05T09:38:50;4.60;99.90
7399;DHT22;3740;50.700;7.184;2022-12-05T09:41:44;4.60;99.90
7399;DHT22;3740;50.700;7.184;2022-12-05T09:44:55;4.60;99.90
7399;DHT22;3740;50.700;7.184;2022-12-05T09:50:27;4.60;99.90
7399;DHT22;3740;50.700;7.184;2022-12-05T09:53:10;5.00;99.90
7399;DHT22;3740;50.700;7.184;2022-12-05T09:55:44;5.30;99.90
7399;DHT22;3740;50.700;7.184;2022-12-05T10:00:57;5.20;99.90
7399;DHT22;3740;50.700;7.184;2022-12-05T10:03:55;5.10;99.90
7399;DHT22;3740;50.700;7.184;2022-12-05T10:06:33;5.00;99.90
7399;DHT22;3740;50.700;7.184;2022-12-05T10:09:24;4.90;99.90
7399;DHT22;3740;50.700;7.184;2022-12-05T10:14:38;4.90;99.90
7399;DHT22;3740;50.700;7.184;2022-12-05T10:17:49;4.90;99.90
7399;DHT22;3740;50.700;7.184;2022-12-05T10:20:14;5.00;99.90
7399;DHT22;3740;50.700;7.184;2022-12-05T10:22:51;5.00;99.90
7399;DHT22;3740;50.700;7.184;2022-12-05T10:25:21;5.00;99.90
7399;DHT22;3740;50.700;7.184;2022-12-05T10:27:52;5.20;99.90
7399;DHT22;3740;50.700;7.184;2022-12-05T10:30:24;5.40;99.90
7399;DHT22;3740;50.700;7.184;2022-12-05T10:32:57;5.50;99.90
7399;DHT22;3740;50.700;7.184;2022-12-05T10:35:27;5.60;99.90
7399;DHT22;3740;50.700;7.184;2022-12-05T10:37:58;5.60;99.90
7399;DHT22;3740;50.700;7.184;2022-12-05T10:40:33;5.70;99.90
7399;DHT22;3740;50.700;7.184;2022-12-05T10:43:00;5.70;99.90
7399;DHT22;3740;50.700;7.184;2022-12-05T10:45:26;5.70;99.90
7399;DHT22;3740;50.700;7.184;2022-12-05T10:47:55;5.70;99.90
7399;DHT22;3740;50.700;7.184;2022-12-05T10:50:34;5.70;99.90
7399;DHT22;3740;50.700;7.184;2022-12-05T10:53:02;5.60;99.90
7399;DHT22;3740;50.700;7.184;2022-12-05T10:55:38;5.60;99.90
7399;DHT22;3740;50.700;7.184;2022-12-05T10:58:19;5.50;99.90
7399;DHT22;3740;50.700;7.184;2022-12-05T11:00:53;5.50;99.90
7399;DHT22;3740;50.700;7.184;2022-12-05T11:03:24;5.40;99.90
7399;DHT22;3740;50.700;7.184;2022-12-05T11:05:58;5.30;99.90
7399;DHT22;3740;50.700;7.184;2022-12-05T11:08:33;5.30;99.90
7399;DHT22;3740;50.700;7.184;2022-12-05T11:11:07;5.30;99.90
7399;DHT22;3740;50.700;7.184;2022-12-05T11:14:03;5.30;99.90
7399;DHT22;3740;50.700;7.184;2022-12-05T11:16:31;5.10;99.90
7399;DHT22;3740;50.700;7.184;2022-12-05T11:21:46;5.00;99.90
7399;DHT22;3740;50.700;7.184;2022-12-05T11:24:36;4.90;99.90
7399;DHT22;3740;50.700;7.184;2022-12-05T11:29:40;4.90;99.90
7399;DHT22;3740;50.700;7.184;2022-12-05T11:32:17;4.70;99.90
7399;DHT22;3740;50.700;7.184;2022-12-05T11:34:49;4.80;99.90
7399;DHT22;3740;50.700;7.184;2022-12-05T11:37:23;4.80;99.90
7399;DHT22;3740;50.700;7.184;2022-12-05T11:39:50;4.90;99.90
7399;DHT22;3740;50.700;7.184;2022-12-05T11:42:23;4.90;99.90
7399;DHT22;3740;50.700;7.184;2022-12-05T11:44:58;4.90;99.90
7399;DHT22;3740;50.700;7.184;2022-12-05T11:47:49;5.00;99.90
7399;DHT22;3740;50.700;7.184;2022-12-05T11:50:35;5.00;99.90
7399;DHT22;3740;50.700;7.184;2022-12-05T12:01:59;5.20;99.90
7399;DHT22;3740;50.700;7.184;2022-12-05T12:04:51;5.30;99.90
7399;DHT22;3740;50.700;7.184;2022-12-05T12:07:46;5.30;99.90
7399;DHT22;3740;50.700;7.184;2022-12-05T12:10:35;5.40;99.90
7399;DHT22;3740;50.700;7.184;2022-12-05T12:24:28;5.50;99.90
7399;DHT22;3740;50.700;7.184;2022-12-05T12:29:44;5.50;99.90
7399;DHT22;3740;50.700;7.184;2022-12-05T12:32:33;5.60;99.90
7399;DHT22;3740;50.700;7.184;2022-12-05T12:35:31;5.60;99.90
7399;DHT22;3740;50.700;7.184;2022-12-05T12:38:16;5.60;99.90
7399;DHT22;3740;50.700;7.184;2022-12-05T12:40:47;5.70;99.90
7399;DHT22;3740;50.700;7.184;2022-12-05T12:45:51;5.80;99.90
7399;DHT22;3740;50.700;7.184;2022-12-05T12:51:31;5.90;99.90
7399;DHT22;3740;50.700;7.184;2022-12-05T12:54:15;6.00;99.90
7399;DHT22;3740;50.700;7.184;2022-12-05T12:56:51;6.10;99.90
7399;DHT22;3740;50.700;7.184;2022-12-05T13:02:53;6.10;99.90
7399;DHT22;3740;50.700;7.184;2022-12-05T13:05:32;5.50;99.90
7399;DHT22;3740;50.700;7.184;2022-12-05T13:08:10;5.10;99.90
7399;DHT22;3740;50.700;7.184;2022-12-05T13:10:41;4.90;99.90
7399;DHT22;3740;50.700;7.184;2022-12-05T13:13:15;4.80;99.90
7399;DHT22;3740;50.700;7.184;2022-12-05T13:15:49;5.00;99.90
7399;DHT22;3740;50.700;7.184;2022-12-05T13:18:21;5.30;99.90
7399;DHT22;3740;50.700;7.184;2022-12-05T13:20:59;5.30;99.90
7399;DHT22;3740;50.700;7.184;2022-12-05T13:23:29;5.60;99.90
7399;DHT22;3740;50.700;7.184;2022-12-05T13:25:58;5.80;99.90
7399;DHT22;3740;50.700;7.184;2022-12-05T13:28:31;5.80;99.90
7399;DHT22;3740;50.700;7.184;2022-12-05T13:30:58;5.90;99.90
7399;DHT22;3740;50.700;7.184;2022-12-05T13:33:44;6.00;99.90
7399;DHT22;3740;50.700;7.184;2022-12-05T13:36:11;6.10;99.90
7399;DHT22;3740;50.700;7.184;2022-12-05T13:39:01;6.00;99.90
7399;DHT22;3740;50.700;7.184;2022-12-05T13:41:51;5.80;99.90
7399;DHT22;3740;50.700;7.184;2022-12-05T13:44:42;5.60;99.90
7399;DHT22;3740;50.700;7.184;2022-12-05T13:52:51;5.50;99.90
7399;DHT22;3740;50.700;7.184;2022-12-05T13:55:30;5.40;99.90
7399;DHT22;3740;50.700;7.184;2022-12-05T13:57:59;5.50;99.90
7399;DHT22;3740;50.700;7.184;2022-12-05T14:00:29;5.40;99.90
7399;DHT22;3740;50.700;7.184;2022-12-05T14:03:01;5.30;99.90
7399;DHT22;3740;50.700;7.184;2022-12-05T14:05:47;5.30;99.90
7399;DHT22;3740;50.700;7.184;2022-12-05T14:15:49;5.30;99.90
7399;DHT22;3740;50.700;7.184;2022-12-05T14:18:19;5.40;99.90
7399;DHT22;3740;50.700;7.184;2022-12-05T14:21:55;5.60;99.90
7399;DHT22;3740;50.700;7.184;2022-12-05T14:24:04;5.80;99.90
7399;DHT22;3740;50.700;7.184;2022-12-05T14:32:18;5.60;99.90
7399;DHT22;3740;50.700;7.184;2022-12-05T14:35:00;5.50;99.90
7399;DHT22;3740;50.700;7.184;2022-12-05T14:37:34;5.40;99.90
7399;DHT22;3740;50.700;7.184;2022-12-05T14:40:03;5.40;99.90
7399;DHT22;3740;50.700;7.184;2022-12-05T14:42:49;5.30;99.90
7399;DHT22;3740;50.700;7.184;2022-12-05T14:45:26;5.30;99.90
7399;DHT22;3740;50.700;7.184;2022-12-05T14:47:55;5.30;99.90
7399;DHT22;3740;50.700;7.184;2022-12-05T14:53:23;5.40;99.90
7399;DHT22;3740;50.700;7.184;2022-12-05T14:59:53;5.40;99.90
7399;DHT22;3740;50.700;7.184;2022-12-05T15:02:00;5.40;99.90
7399;DHT22;3740;50.700;7.184;2022-12-05T15:04:37;5.30;99.90
7399;DHT22;3740;50.700;7.184;2022-12-05T15:07:11;5.30;99.90
7399;DHT22;3740;50.700;7.184;2022-12-05T15:09:59;5.30;99.90
7399;DHT22;3740;50.700;7.184;2022-12-05T15:12:37;5.30;99.90
7399;DHT22;3740;50.700;7.184;2022-12-05T15:17:53;5.20;99.90
7399;DHT22;3740;50.700;7.184;2022-12-05T15:23:47;5.10;99.90
7399;DHT22;3740;50.700;7.184;2022-12-05T15:28:57;5.00;99.90
7399;DHT22;3740;50.700;7.184;2022-12-05T15:31:27;5.10;99.90
7399;DHT22;3740;50.700;7.184;2022-12-05T15:33:57;5.10;99.90
7399;DHT22;3740;50.700;7.184;2022-12-05T15:36:28;5.20;99.90
7399;DHT22;3740;50.700;7.184;2022-12-05T15:38:56;5.30;99.90
7399;DHT22;3740;50.700;7.184;2022-12-05T15:41:22;5.20;99.90
7399;DHT22;3740;50.700;7.184;2022-12-05T15:44:05;5.30;99.90
7399;DHT22;3740;50.700;7.184;2022-12-05T15:46:31;5.30;99.90
7399;DHT22;3740;50.700;7.184;2022-12-05T15:48:57;5.20;99.90
7399;DHT22;3740;50.700;7.184;2022-12-05T15:51:34;5.10;99.90
7399;DHT22;3740;50.700;7.184;2022-12-05T15:54:09;4.80;99.90
7399;DHT22;3740;50.700;7.184;2022-12-05T15:59:46;4.40;99.90
7399;DHT22;3740;50.700;7.184;2022-12-05T16:02:32;4.40;99.90
7399;DHT22;3740;50.700;7.184;2022-12-05T16:04:59;4.60;99.90
7399;DHT22;3740;50.700;7.184;2022-12-05T16:07:28;4.70;99.90
7399;DHT22;3740;50.700;7.184;2022-12-05T16:09:59;4.80;99.90
7399;DHT22;3740;50.700;7.184;2022-12-05T16:12:32;4.70;99.90
7399;DHT22;3740;50.700;7.184;2022-12-05T16:15:09;4.50;99.90
7399;DHT22;3740;50.700;7.184;2022-12-05T16:17:40;4.40;99.90
7399;DHT22;3740;50.700;7.184;2022-12-05T16:20:11;4.30;99.90
7399;DHT22;3740;50.700;7.184;2022-12-05T16:22:47;4.40;99.90
7399;DHT22;3740;50.700;7.184;2022-12-05T16:25:15;4.20;99.90
7399;DHT22;3740;50.700;7.184;2022-12-05T16:27:41;4.20;99.90
7399;DHT22;3740;50.700;7.184;2022-12-05T16:32:37;4.40;99.90
7399;DHT22;3740;50.700;7.184;2022-12-05T16:35:21;4.60;99.90
7399;DHT22;3740;50.700;7.184;2022-12-05T16:37:49;4.60;99.90
7399;DHT22;3740;50.700;7.184;2022-12-05T16:40:21;4.70;99.90
7399;DHT22;3740;50.700;7.184;2022-12-05T16:43:00;4.80;99.90
7399;DHT22;3740;50.700;7.184;2022-12-05T16:45:38;4.90;99.90
7399;DHT22;3740;50.700;7.184;2022-12-05T16:48:13;4.90;99.90
7399;DHT22;3740;50.700;7.184;2022-12-05T16:50:40;4.70;99.90
7399;DHT22;3740;50.700;7.184;2022-12-05T16:55:38;4.70;99.90
7399;DHT22;3740;50.700;7.184;2022-12-05T16:58:04;4.40;99.90
7399;DHT22;3740;50.700;7.184;2022-12-05T17:00:30;4.20;99.90
7399;DHT22;3740;50.700;7.184;2022-12-05T17:02:56;4.20;99.90
7399;DHT22;3740;50.700;7.184;2022-12-05T17:05:22;4.10;99.90
7399;DHT22;3740;50.700;7.184;2022-12-05T17:07:48;4.10;99.90
7399;DHT22;3740;50.700;7.184;2022-12-05T17:10:13;3.90;99.90
7399;DHT22;3740;50.700;7.184;2022-12-05T17:12:41;3.90;99.90
7399;DHT22;3740;50.700;7.184;2022-12-05T17:15:16;3.80;99.90
7399;DHT22;3740;50.700;7.184;2022-12-05T17:17:43;3.90;99.90
7399;DHT22;3740;50.700;7.184;2022-12-05T17:20:08;3.90;99.90
7399;DHT22;3740;50.700;7.184;2022-12-05T17:22:34;3.80;99.90
7399;DHT22;3740;50.700;7.184;2022-12-05T17:24:59;3.90;99.90
7399;DHT22;3740;50.700;7.184;2022-12-05T17:27:25;3.90;99.90
7399;DHT22;3740;50.700;7.184;2022-12-05T17:29:51;3.80;99.90
7399;DHT22;3740;50.700;7.184;2022-12-05T17:32:16;3.70;99.90
7399;DHT22;3740;50.700;7.184;2022-12-05T17:34:42;3.70;99.90
7399;DHT22;3740;50.700;7.184;2022-12-05T17:37:07;3.70;99.90
7399;DHT22;3740;50.700;7.184;2022-12-05T17:39:33;3.70;99.90
7399;DHT22;3740;50.700;7.184;2022-12-05T17:41:58;3.80;99.90
7399;DHT22;3740;50.700;7.184;2022-12-05T17:44:24;3.80;99.90
7399;DHT22;3740;50.700;7.184;2022-12-05T17:46:49;3.70;99.90
7399;DHT22;3740;50.700;7.184;2022-12-05T17:49:16;3.70;99.90
7399;DHT22;3740;50.700;7.184;2022-12-05T17:51:42;3.60;99.90
7399;DHT22;3740;50.700;7.184;2022-12-05T17:54:08;3.60;99.90
7399;DHT22;3740;50.700;7.184;2022-12-05T17:56:34;3.60;99.90
7399;DHT22;3740;50.700;7.184;2022-12-05T17:59:00;3.60;99.90
7399;DHT22;3740;50.700;7.184;2022-12-05T18:01:26;3.70;99.90
7399;DHT22;3740;50.700;7.184;2022-12-05T18:03:51;3.70;99.90
7399;DHT22;3740;50.700;7.184;2022-12-05T18:06:17;3.60;99.90
7399;DHT22;3740;50.700;7.184;2022-12-05T18:08:43;3.60;99.90
7399;DHT22;3740;50.700;7.184;2022-12-05T18:11:10;3.50;99.90
7399;DHT22;3740;50.700;7.184;2022-12-05T18:13:36;3.40;99.90
7399;DHT22;3740;50.700;7.184;2022-12-05T18:16:02;3.40;99.90
7399;DHT22;3740;50.700;7.184;2022-12-05T18:18:28;3.30;99.90
7399;DHT22;3740;50.700;7.184;2022-12-05T18:21:06;3.30;99.90
7399;DHT22;3740;50.700;7.184;2022-12-05T18:23:33;3.50;99.90
7399;DHT22;3740;50.700;7.184;2022-12-05T18:25:59;3.50;99.90
7399;DHT22;3740;50.700;7.184;2022-12-05T18:28:25;3.50;99.90
7399;DHT22;3740;50.700;7.184;2022-12-05T18:31:11;3.50;99.90
7399;DHT22;3740;50.700;7.184;2022-12-05T18:33:39;3.50;99.90
7399;DHT22;3740;50.700;7.184;2022-12-05T18:36:06;3.50;99.90